sensor_id;sensor_type;location;lat;lon;timestamp;temperature;humidity
10662;DHT22;5379;51.034;7.006;2024-01-16T00:00:07;3.50;99.90
10662;DHT22;5379;51.034;7.006;2024-01-16T00:02:35;3.50;99.90
10662;DHT22;5379;51.034;7.006;2024-01-16T00:05:03;3.60;99.90
10662;DHT22;5379;51.034;7.006;2024-01-16T00:09:58;3.50;99.90
10662;DHT22;5379;51.034;7.006;2024-01-16T00:19:47;3.50;99.90
10662;DHT22;5379;51.034;7.006;2024-01-16T00:27:08;3.70;99.90
10662;DHT22;5379;51.034;7.006;2024-01-16T00:29:35;3.70;99.90
10662;DHT22;5379;51.034;7.006;2024-01-16T00:32:02;4.60;99.90
10662;DHT22;5379;51.034;7.006;2024-01-16T00:34:29;3.60;99.90
10662;DHT22;5379;51.034;7.006;2024-01-16T00:36:57;3.50;99.90
10662;DHT22;5379;51.034;7.006;2024-01-16T00:39:23;3.50;99.90
10662;DHT22;5379;51.034;7.006;2024-01-16T00:49:12;3.60;99.90
10662;DHT22;5379;51.034;7.006;2024-01-16T00:54:07;3.70;99.90
10662;DHT22;5379;51.034;7.006;2024-01-16T05:31:44;2.90;99.90
10662;DHT22;5379;51.034;7.006;2024-01-16T05:41:34;2.80;99.90
10662;DHT22;5379;51.034;7.006;2024-01-16T05:46:29;2.70;99.90
10662;DHT22;5379;51.034;7.006;2024-01-16T05:48:58;2.70;99.90
10662;DHT22;5379;51.034;7.006;2024-01-16T06:06:13;2.80;99.90
10662;DHT22;5379;51.034;7.006;2024-01-16T06:16:05;2.70;99.90
10662;DHT22;5379;51.034;7.006;2024-01-16T06:23:29;2.80;99.90
10662;DHT22;5379;51.034;7.006;2024-01-16T06:40:40;2.90;99.90
10662;DHT22;5379;51.034;7.006;2024-01-16T06:45:34;3.00;99.90
10662;DHT22;5379;51.034;7.006;2024-01-16T06:57:51;3.00;99.90
10662;DHT22;5379;51.034;7.006;2024-01-16T07:00:19;3.00;99.90
10662;DHT22;5379;51.034;7.006;2024-01-16T07:07:44;3.10;99.90
10662;DHT22;5379;51.034;7.006;2024-01-16T07:15:12;3.00;99.90
10662;DHT22;5379;51.034;7.006;2024-01-16T07:17:39;3.10;99.90
10662;DHT22;5379;51.034;7.006;2024-01-16T07:20:06;3.00;99.90
10662;DHT22;5379;51.034;7.006;2024-01-16T07:52:04;3.00;99.90
10662;DHT22;5379;51.034;7.006;2024-01-16T08:06:49;3.10;99.90
10662;DHT22;5379;51.034;7.006;2024-01-16T08:24:00;3.50;99.90
10662;DHT22;5379;51.034;7.006;2024-01-16T08:48:34;3.20;99.90
10662;DHT22;5379;51.034;7.006;2024-01-16T08:51:04;3.20;99.90
10662;DHT22;5379;51.034;7.006;2024-01-16T08:58:29;3.20;99.90
10662;DHT22;5379;51.034;7.006;2024-01-16T09:15:43;3.20;99.90
10662;DHT22;5379;51.034;7.006;2024-01-16T09:40:16;3.20;99.90
10662;DHT22;5379;51.034;7.006;2024-01-16T09:45:13;3.20;99.90
10662;DHT22;5379;51.034;7.006;2024-01-16T09:50:11;3.30;99.90
10662;DHT22;5379;51.034;7.006;2024-01-16T09:55:06;3.30;99.90
10662;DHT22;5379;51.034;7.006;2024-01-16T09:57:34;3.30;99.90
10662;DHT22;5379;51.034;7.006;2024-01-16T10:00:07;3.40;99.90
10662;DHT22;5379;51.034;7.006;2024-01-16T10:02:37;3.40;99.90
10662;DHT22;5379;51.034;7.006;2024-01-16T10:05:05;3.30;99.90
10662;DHT22;5379;51.034;7.006;2024-01-16T10:07:36;3.20;99.90
10662;DHT22;5379;51.034;7.006;2024-01-16T10:10:04;3.20;99.90
10662;DHT22;5379;51.034;7.006;2024-01-16T10:17:35;3.40;99.90
10662;DHT22;5379;51.034;7.006;2024-01-16T10:25:09;3.40;99.90
10662;DHT22;5379;51.034;7.006;2024-01-16T10:27:38;3.40;99.90
10662;DHT22;5379;51.034;7.006;2024-01-16T10:30:06;3.40;99.90
10662;DHT22;5379;51.034;7.006;2024-01-16T10:32:35;3.50;99.90
10662;DHT22;5379;51.034;7.006;2024-01-16T10:35:04;3.50;99.90
10662;DHT22;5379;51.034;7.006;2024-01-16T10:42:27;3.20;99.90
10662;DHT22;5379;51.034;7.006;2024-01-16T10:47:22;3.30;99.90
10662;DHT22;5379;51.034;7.006;2024-01-16T10:49:49;5.20;99.90
10662;DHT22;5379;51.034;7.006;2024-01-16T10:52:17;3.50;99.90
10662;DHT22;5379;51.034;7.006;2024-01-16T10:54:46;3.60;99.90
10662;DHT22;5379;51.034;7.006;2024-01-16T10:59:50;3.60;99.90
10662;DHT22;5379;51.034;7.006;2024-01-16T11:02:24;3.80;99.90
10662;DHT22;5379;51.034;7.006;2024-01-16T11:04:55;3.90;99.90
10662;DHT22;5379;51.034;7.006;2024-01-16T11:07:24;4.80;99.90
10662;DHT22;5379;51.034;7.006;2024-01-16T11:09:52;3.90;99.90
10662;DHT22;5379;51.034;7.006;2024-01-16T11:12:21;3.90;99.90
10662;DHT22;5379;51.034;7.006;2024-01-16T11:14:51;3.90;99.90
10662;DHT22;5379;51.034;7.006;2024-01-16T11:17:19;3.60;99.90
10662;DHT22;5379;51.034;7.006;2024-01-16T11:19:47;3.60;99.90
10662;DHT22;5379;51.034;7.006;2024-01-16T11:22:15;3.80;99.90
10662;DHT22;5379;51.034;7.006;2024-01-16T11:27:22;4.10;99.90
10662;DHT22;5379;51.034;7.006;2024-01-16T11:29:51;4.10;99.90
10662;DHT22;5379;51.034;7.006;2024-01-16T11:32:33;4.10;99.90
10662;DHT22;5379;51.034;7.006;2024-01-16T11:37:28;4.00;99.90
10662;DHT22;5379;51.034;7.006;2024-01-16T11:40:24;3.90;99.90
10662;DHT22;5379;51.034;7.006;2024-01-16T11:42:53;3.90;99.90
10662;DHT22;5379;51.034;7.006;2024-01-16T11:45:49;3.90;99.90
10662;DHT22;5379;51.034;7.006;2024-01-16T11:48:19;3.80;99.90
10662;DHT22;5379;51.034;7.006;2024-01-16T11:50:46;3.80;99.90
10662;DHT22;5379;51.034;7.006;2024-01-16T11:53:35;3.90;99.90
10662;DHT22;5379;51.034;7.006;2024-01-16T11:56:41;3.80;99.90
10662;DHT22;5379;51.034;7.006;2024-01-16T11:59:40;3.70;99.90
10662;DHT22;5379;51.034;7.006;2024-01-16T12:02:14;3.70;99.90
10662;DHT22;5379;51.034;7.006;2024-01-16T12:04:52;3.90;99.90
10662;DHT22;5379;51.034;7.006;2024-01-16T12:07:19;3.80;99.90
10662;DHT22;5379;51.034;7.006;2024-01-16T12:09:47;3.90;99.90
10662;DHT22;5379;51.034;7.006;2024-01-16T12:12:15;3.90;99.90
10662;DHT22;5379;51.034;7.006;2024-01-16T12:17:20;3.60;99.90
10662;DHT22;5379;51.034;7.006;2024-01-16T12:19:47;3.60;99.90
10662;DHT22;5379;51.034;7.006;2024-01-16T12:22:15;3.50;99.90
10662;DHT22;5379;51.034;7.006;2024-01-16T12:24:43;3.60;99.90
10662;DHT22;5379;51.034;7.006;2024-01-16T12:27:11;3.70;99.90
10662;DHT22;5379;51.034;7.006;2024-01-16T12:29:38;3.70;99.90
10662;DHT22;5379;51.034;7.006;2024-01-16T12:32:07;3.70;99.90
10662;DHT22;5379;51.034;7.006;2024-01-16T12:34:43;3.70;99.90
10662;DHT22;5379;51.034;7.006;2024-01-16T12:37:11;3.80;99.90
10662;DHT22;5379;51.034;7.006;2024-01-16T12:39:39;3.90;99.90
10662;DHT22;5379;51.034;7.006;2024-01-16T12:42:07;3.90;99.90
10662;DHT22;5379;51.034;7.006;2024-01-16T12:44:35;3.80;99.90
10662;DHT22;5379;51.034;7.006;2024-01-16T12:47:03;3.70;99.90
10662;DHT22;5379;51.034;7.006;2024-01-16T12:49:30;3.50;99.90
10662;DHT22;5379;51.034;7.006;2024-01-16T12:52:20;3.50;99.90
10662;DHT22;5379;51.034;7.006;2024-01-16T12:54:48;3.50;99.90
10662;DHT22;5379;51.034;7.006;2024-01-16T12:57:19;3.60;99.90
10662;DHT22;5379;51.034;7.006;2024-01-16T12:59:47;3.70;99.90
10662;DHT22;5379;51.034;7.006;2024-01-16T13:02:21;3.70;99.90
10662;DHT22;5379;51.034;7.006;2024-01-16T13:04:56;3.80;99.90
10662;DHT22;5379;51.034;7.006;2024-01-16T13:07:26;4.00;99.90
10662;DHT22;5379;51.034;7.006;2024-01-16T13:10:07;4.00;99.90
10662;DHT22;5379;51.034;7.006;2024-01-16T13:12:34;4.00;99.90
10662;DHT22;5379;51.034;7.006;2024-01-16T13:15:02;3.90;99.90
10662;DHT22;5379;51.034;7.006;2024-01-16T13:17:31;3.90;99.90
10662;DHT22;5379;51.034;7.006;2024-01-16T13:19:58;3.90;99.90
10662;DHT22;5379;51.034;7.006;2024-01-16T13:22:27;3.80;99.90
10662;DHT22;5379;51.034;7.006;2024-01-16T13:24:53;3.70;99.90
10662;DHT22;5379;51.034;7.006;2024-01-16T13:27:21;3.80;99.90
10662;DHT22;5379;51.034;7.006;2024-01-16T13:32:16;3.80;99.90
10662;DHT22;5379;51.034;7.006;2024-01-16T13:37:19;3.80;99.90
10662;DHT22;5379;51.034;7.006;2024-01-16T13:39:47;3.80;99.90
10662;DHT22;5379;51.034;7.006;2024-01-16T13:44:44;3.80;99.90
10662;DHT22;5379;51.034;7.006;2024-01-16T13:49:39;3.80;99.90
10662;DHT22;5379;51.034;7.006;2024-01-16T13:52:06;3.80;99.90
10662;DHT22;5379;51.034;7.006;2024-01-16T13:54:36;4.00;99.90
10662;DHT22;5379;51.034;7.006;2024-01-16T13:57:05;3.90;99.90
10662;DHT22;5379;51.034;7.006;2024-01-16T13:59:32;3.90;99.90
10662;DHT22;5379;51.034;7.006;2024-01-16T14:01:59;4.00;99.90
10662;DHT22;5379;51.034;7.006;2024-01-16T14:04:26;4.10;99.90
10662;DHT22;5379;51.034;7.006;2024-01-16T14:06:53;4.10;99.90
10662;DHT22;5379;51.034;7.006;2024-01-16T14:09:20;4.20;99.90
10662;DHT22;5379;51.034;7.006;2024-01-16T14:11:46;4.30;99.90
10662;DHT22;5379;51.034;7.006;2024-01-16T14:14:14;4.40;99.90
10662;DHT22;5379;51.034;7.006;2024-01-16T14:16:41;4.40;99.90
10662;DHT22;5379;51.034;7.006;2024-01-16T14:19:08;4.20;99.90
10662;DHT22;5379;51.034;7.006;2024-01-16T14:21:35;4.20;99.90
10662;DHT22;5379;51.034;7.006;2024-01-16T14:26:29;4.00;99.90
10662;DHT22;5379;51.034;7.006;2024-01-16T14:31:24;4.00;99.90
10662;DHT22;5379;51.034;7.006;2024-01-16T14:38:46;3.90;99.90
10662;DHT22;5379;51.034;7.006;2024-01-16T14:41:14;3.90;99.90
10662;DHT22;5379;51.034;7.006;2024-01-16T14:43:42;3.80;99.90
10662;DHT22;5379;51.034;7.006;2024-01-16T14:46:09;3.80;99.90
10662;DHT22;5379;51.034;7.006;2024-01-16T14:48:37;3.70;99.90
10662;DHT22;5379;51.034;7.006;2024-01-16T14:51:04;3.70;99.90
10662;DHT22;5379;51.034;7.006;2024-01-16T14:53:31;3.70;99.90
10662;DHT22;5379;51.034;7.006;2024-01-16T14:55:58;3.60;99.90
10662;DHT22;5379;51.034;7.006;2024-01-16T14:58:25;3.60;99.90
10662;DHT22;5379;51.034;7.006;2024-01-16T15:00:52;3.60;99.90
10662;DHT22;5379;51.034;7.006;2024-01-16T15:03:19;3.60;99.90
10662;DHT22;5379;51.034;7.006;2024-01-16T15:05:47;3.50;99.90
10662;DHT22;5379;51.034;7.006;2024-01-16T15:08:14;3.50;99.90
10662;DHT22;5379;51.034;7.006;2024-01-16T15:10:41;3.80;99.90
10662;DHT22;5379;51.034;7.006;2024-01-16T15:13:08;3.90;99.90
10662;DHT22;5379;51.034;7.006;2024-01-16T15:15:35;3.70;99.90
10662;DHT22;5379;51.034;7.006;2024-01-16T15:18:03;3.50;99.90
10662;DHT22;5379;51.034;7.006;2024-01-16T15:20:30;3.50;99.90
10662;DHT22;5379;51.034;7.006;2024-01-16T15:22:58;3.50;99.90
10662;DHT22;5379;51.034;7.006;2024-01-16T15:25:25;3.40;99.90
10662;DHT22;5379;51.034;7.006;2024-01-16T15:27:51;3.30;99.90
10662;DHT22;5379;51.034;7.006;2024-01-16T15:30:19;3.30;99.90
10662;DHT22;5379;51.034;7.006;2024-01-16T15:32:47;3.20;99.90
10662;DHT22;5379;51.034;7.006;2024-01-16T15:35:14;3.30;99.90
10662;DHT22;5379;51.034;7.006;2024-01-16T15:37:41;3.20;99.90
10662;DHT22;5379;51.034;7.006;2024-01-16T15:40:11;3.20;99.90
10662;DHT22;5379;51.034;7.006;2024-01-16T15:42:40;3.20;99.90
10662;DHT22;5379;51.034;7.006;2024-01-16T15:45:08;3.10;99.90
10662;DHT22;5379;51.034;7.006;2024-01-16T15:47:36;3.00;99.90
10662;DHT22;5379;51.034;7.006;2024-01-16T15:50:04;3.10;99.90
10662;DHT22;5379;51.034;7.006;2024-01-16T15:52:31;3.10;99.90
10662;DHT22;5379;51.034;7.006;2024-01-16T15:54:59;3.00;99.90
10662;DHT22;5379;51.034;7.006;2024-01-16T15:57:27;3.00;99.90
10662;DHT22;5379;51.034;7.006;2024-01-16T15:59:53;2.90;99.90
10662;DHT22;5379;51.034;7.006;2024-01-16T16:02:20;2.90;99.90
10662;DHT22;5379;51.034;7.006;2024-01-16T16:04:47;2.90;99.90
10662;DHT22;5379;51.034;7.006;2024-01-16T16:07:14;2.80;99.90
10662;DHT22;5379;51.034;7.006;2024-01-16T16:09:41;2.70;99.90
10662;DHT22;5379;51.034;7.006;2024-01-16T16:12:08;2.60;99.90
10662;DHT22;5379;51.034;7.006;2024-01-16T16:14:36;2.60;99.90
10662;DHT22;5379;51.034;7.006;2024-01-16T16:17:05;2.60;99.90
10662;DHT22;5379;51.034;7.006;2024-01-16T16:19:34;2.50;99.90
10662;DHT22;5379;51.034;7.006;2024-01-16T16:22:01;2.50;99.90
10662;DHT22;5379;51.034;7.006;2024-01-16T16:24:27;2.50;99.90
10662;DHT22;5379;51.034;7.006;2024-01-16T16:26:56;2.50;99.90
10662;DHT22;5379;51.034;7.006;2024-01-16T16:29:24;2.50;99.90
10662;DHT22;5379;51.034;7.006;2024-01-16T16:31:53;2.50;99.90
10662;DHT22;5379;51.034;7.006;2024-01-16T16:34:20;2.50;99.90
10662;DHT22;5379;51.034;7.006;2024-01-16T16:39:14;2.40;99.90
10662;DHT22;5379;51.034;7.006;2024-01-16T16:41:42;2.40;99.90
10662;DHT22;5379;51.034;7.006;2024-01-16T16:44:09;2.40;99.90
10662;DHT22;5379;51.034;7.006;2024-01-16T16:46:36;2.40;99.90
10662;DHT22;5379;51.034;7.006;2024-01-16T16:49:04;2.40;99.90
10662;DHT22;5379;51.034;7.006;2024-01-16T16:51:31;2.40;99.90
10662;DHT22;5379;51.034;7.006;2024-01-16T16:54:03;2.40;99.90
10662;DHT22;5379;51.034;7.006;2024-01-16T16:56:29;2.40;99.90
10662;DHT22;5379;51.034;7.006;2024-01-16T16:58:57;2.40;99.90
10662;DHT22;5379;51.034;7.006;2024-01-16T17:01:24;2.30;99.90
10662;DHT22;5379;51.034;7.006;2024-01-16T17:06:19;2.20;99.90
10662;DHT22;5379;51.034;7.006;2024-01-16T17:08:46;2.20;99.90
10662;DHT22;5379;51.034;7.006;2024-01-16T17:11:13;2.20;99.90
10662;DHT22;5379;51.034;7.006;2024-01-16T17:13:41;2.20;99.90
10662;DHT22;5379;51.034;7.006;2024-01-16T17:16:11;2.20;99.90
10662;DHT22;5379;51.034;7.006;2024-01-16T17:18:38;2.20;99.90
10662;DHT22;5379;51.034;7.006;2024-01-16T17:21:06;2.10;99.90
10662;DHT22;5379;51.034;7.006;2024-01-16T17:23:35;2.10;99.90
10662;DHT22;5379;51.034;7.006;2024-01-16T17:28:30;2.10;99.90
10662;DHT22;5379;51.034;7.006;2024-01-16T17:30:58;2.10;99.90
10662;DHT22;5379;51.034;7.006;2024-01-16T17:33:25;2.20;99.90
10662;DHT22;5379;51.034;7.006;2024-01-16T17:40:48;1.90;99.90
10662;DHT22;5379;51.034;7.006;2024-01-16T17:43:15;1.90;99.90
10662;DHT22;5379;51.034;7.006;2024-01-16T17:45:42;1.90;99.90
10662;DHT22;5379;51.034;7.006;2024-01-16T17:50:37;1.90;99.90
10662;DHT22;5379;51.034;7.006;2024-01-16T17:53:04;2.00;99.90
10662;DHT22;5379;51.034;7.006;2024-01-16T17:55:31;1.90;99.90
10662;DHT22;5379;51.034;7.006;2024-01-16T17:58:00;1.90;99.90
10662;DHT22;5379;51.034;7.006;2024-01-16T18:00:27;1.90;99.90
10662;DHT22;5379;51.034;7.006;2024-01-16T18:02:54;1.90;99.90
10662;DHT22;5379;51.034;7.006;2024-01-16T18:05:22;1.90;99.90
10662;DHT22;5379;51.034;7.006;2024-01-16T18:07:49;1.80;99.90
10662;DHT22;5379;51.034;7.006;2024-01-16T18:10:16;1.80;99.90
10662;DHT22;5379;51.034;7.006;2024-01-16T18:12:45;1.80;99.90
10662;DHT22;5379;51.034;7.006;2024-01-16T18:15:13;1.80;99.90
10662;DHT22;5379;51.034;7.006;2024-01-16T18:17:41;1.90;99.90
10662;DHT22;5379;51.034;7.006;2024-01-16T18:20:10;1.80;99.90
10662;DHT22;5379;51.034;7.006;2024-01-16T18:22:39;1.80;99.90
10662;DHT22;5379;51.034;7.006;2024-01-16T18:25:07;1.80;99.90
10662;DHT22;5379;51.034;7.006;2024-01-16T18:27:35;1.70;99.90
10662;DHT22;5379;51.034;7.006;2024-01-16T18:30:03;1.70;99.90
10662;DHT22;5379;51.034;7.006;2024-01-16T18:32:31;1.60;99.90
10662;DHT22;5379;51.034;7.006;2024-01-16T18:34:58;1.70;99.90
10662;DHT22;5379;51.034;7.006;2024-01-16T18:37:25;1.70;99.90
10662;DHT22;5379;51.034;7.006;2024-01-16T18:39:52;1.70;99.90
10662;DHT22;5379;51.034;7.006;2024-01-16T18:42:19;1.70;99.90
10662;DHT22;5379;51.034;7.006;2024-01-16T18:44:48;1.60;99.90
10662;DHT22;5379;51.034;7.006;2024-01-16T18:47:14;1.60;99.90
10662;DHT22;5379;51.034;7.006;2024-01-16T18:49:42;1.60;99.90
10662;DHT22;5379;51.034;7.006;2024-01-16T18:52:10;1.60;99.90
10662;DHT22;5379;51.034;7.006;2024-01-16T18:54:37;1.50;99.90
10662;DHT22;5379;51.034;7.006;2024-01-16T18:57:04;1.50;99.90
10662;DHT22;5379;51.034;7.006;2024-01-16T18:59:31;1.40;99.90
10662;DHT22;5379;51.034;7.006;2024-01-16T19:01:57;1.20;99.90
10662;DHT22;5379;51.034;7.006;2024-01-16T19:04:24;1.30;99.90
10662;DHT22;5379;51.034;7.006;2024-01-16T19:06:52;1.30;99.90
10662;DHT22;5379;51.034;7.006;2024-01-16T19:09:19;1.30;99.90
10662;DHT22;5379;51.034;7.006;2024-01-16T19:14:14;1.20;99.90
10662;DHT22;5379;51.034;7.006;2024-01-16T19:16:41;1.30;99.90
10662;DHT22;5379;51.034;7.006;2024-01-16T19:19:09;1.20;99.90
10662;DHT22;5379;51.034;7.006;2024-01-16T19:21:36;1.10;99.90
10662;DHT22;5379;51.034;7.006;2024-01-16T19:24:05;1.20;99.90
10662;DHT22;5379;51.034;7.006;2024-01-16T19:26:31;1.20;99.90
10662;DHT22;5379;51.034;7.006;2024-01-16T19:28:58;1.20;99.90
10662;DHT22;5379;51.034;7.006;2024-01-16T19:31:26;1.20;99.90
10662;DHT22;5379;51.034;7.006;2024-01-16T19:33:55;1.20;99.90
10662;DHT22;5379;51.034;7.006;2024-01-16T19:36:22;1.10;99.90
10662;DHT22;5379;51.034;7.006;2024-01-16T19:38:48;1.00;99.90
10662;DHT22;5379;51.034;7.006;2024-01-16T19:41:16;1.00;99.90
10662;DHT22;5379;51.034;7.006;2024-01-16T19:43:45;1.10;99.90
10662;DHT22;5379;51.034;7.006;2024-01-16T19:46:13;1.10;99.90
10662;DHT22;5379;51.034;7.006;2024-01-16T19:48:40;1.10;99.90
10662;DHT22;5379;51.034;7.006;2024-01-16T19:51:07;1.10;99.90
10662;DHT22;5379;51.034;7.006;2024-01-16T19:53:35;1.00;99.90
10662;DHT22;5379;51.034;7.006;2024-01-16T19:56:04;0.90;99.90
10662;DHT22;5379;51.034;7.006;2024-01-16T19:58:34;1.00;99.90
10662;DHT22;5379;51.034;7.006;2024-01-16T20:01:02;0.90;99.90
10662;DHT22;5379;51.034;7.006;2024-01-16T20:03:29;1.00;99.90
10662;DHT22;5379;51.034;7.006;2024-01-16T20:08:25;1.00;99.90
10662;DHT22;5379;51.034;7.006;2024-01-16T20:10:52;0.90;99.90
10662;DHT22;5379;51.034;7.006;2024-01-16T20:13:19;0.80;99.90
10662;DHT22;5379;51.034;7.006;2024-01-16T20:15:47;0.80;99.90
10662;DHT22;5379;51.034;7.006;2024-01-16T20:18:14;0.70;99.90
10662;DHT22;5379;51.034;7.006;2024-01-16T20:20:41;0.70;99.90
10662;DHT22;5379;51.034;7.006;2024-01-16T20:23:08;0.70;99.90
10662;DHT22;5379;51.034;7.006;2024-01-16T20:25:35;0.50;99.90
10662;DHT22;5379;51.034;7.006;2024-01-16T20:28:01;0.60;99.90
10662;DHT22;5379;51.034;7.006;2024-01-16T20:30:30;0.60;99.90
10662;DHT22;5379;51.034;7.006;2024-01-16T20:33:00;0.60;99.90
10662;DHT22;5379;51.034;7.006;2024-01-16T20:35:27;0.70;99.90
10662;DHT22;5379;51.034;7.006;2024-01-16T20:37:53;0.50;99.90
10662;DHT22;5379;51.034;7.006;2024-01-16T20:40:20;0.60;99.90
10662;DHT22;5379;51.034;7.006;2024-01-16T20:42:48;0.50;99.90
10662;DHT22;5379;51.034;7.006;2024-01-16T20:45:15;0.50;99.90
10662;DHT22;5379;51.034;7.006;2024-01-16T20:47:41;0.60;99.90
10662;DHT22;5379;51.034;7.006;2024-01-16T20:50:11;0.60;99.90
10662;DHT22;5379;51.034;7.006;2024-01-16T20:55:06;0.60;99.90
10662;DHT22;5379;51.034;7.006;2024-01-16T20:57:33;0.50;99.90
10662;DHT22;5379;51.034;7.006;2024-01-16T21:02:30;0.60;99.90
10662;DHT22;5379;51.034;7.006;2024-01-16T21:04:56;0.70;99.90
10662;DHT22;5379;51.034;7.006;2024-01-16T21:07:25;0.70;99.90
10662;DHT22;5379;51.034;7.006;2024-01-16T21:09:51;0.70;99.90
10662;DHT22;5379;51.034;7.006;2024-01-16T21:12:18;0.70;99.90
10662;DHT22;5379;51.034;7.006;2024-01-16T21:14:45;0.70;99.90
10662;DHT22;5379;51.034;7.006;2024-01-16T21:17:11;0.70;99.90
10662;DHT22;5379;51.034;7.006;2024-01-16T21:19:38;0.70;99.90
10662;DHT22;5379;51.034;7.006;2024-01-16T21:22:05;4.00;99.90
10662;DHT22;5379;51.034;7.006;2024-01-16T21:24:33;0.80;99.90
10662;DHT22;5379;51.034;7.006;2024-01-16T21:27:00;0.80;99.90
10662;DHT22;5379;51.034;7.006;2024-01-16T21:29:27;0.70;99.90
10662;DHT22;5379;51.034;7.006;2024-01-16T21:31:54;0.70;99.90
10662;DHT22;5379;51.034;7.006;2024-01-16T21:34:22;0.70;99.90
10662;DHT22;5379;51.034;7.006;2024-01-16T21:36:49;0.80;99.90
10662;DHT22;5379;51.034;7.006;2024-01-16T21:39:17;0.70;99.90
10662;DHT22;5379;51.034;7.006;2024-01-16T21:41:46;0.80;99.90
10662;DHT22;5379;51.034;7.006;2024-01-16T21:44:12;0.50;99.90
10662;DHT22;5379;51.034;7.006;2024-01-16T21:46:39;0.50;99.90
10662;DHT22;5379;51.034;7.006;2024-01-16T21:49:07;0.40;99.90
10662;DHT22;5379;51.034;7.006;2024-01-16T21:51:34;0.30;99.90
10662;DHT22;5379;51.034;7.006;2024-01-16T21:54:00;0.50;99.90
10662;DHT22;5379;51.034;7.006;2024-01-16T21:56:28;0.50;99.90
10662;DHT22;5379;51.034;7.006;2024-01-16T21:58:56;0.50;99.90
10662;DHT22;5379;51.034;7.006;2024-01-16T22:01:24;0.50;99.90
10662;DHT22;5379;51.034;7.006;2024-01-16T22:03:51;0.40;99.90
10662;DHT22;5379;51.034;7.006;2024-01-16T22:06:18;0.40;99.90
10662;DHT22;5379;51.034;7.006;2024-01-16T22:08:48;0.40;99.90
10662;DHT22;5379;51.034;7.006;2024-01-16T22:11:15;0.40;99.90
10662;DHT22;5379;51.034;7.006;2024-01-16T22:13:42;0.30;99.90
10662;DHT22;5379;51.034;7.006;2024-01-16T22:16:11;0.20;99.90
10662;DHT22;5379;51.034;7.006;2024-01-16T22:18:37;0.30;99.90
10662;DHT22;5379;51.034;7.006;2024-01-16T22:21:04;0.20;99.90
10662;DHT22;5379;51.034;7.006;2024-01-16T22:23:32;0.20;99.90
10662;DHT22;5379;51.034;7.006;2024-01-16T22:25:59;0.20;99.90
10662;DHT22;5379;51.034;7.006;2024-01-16T22:28:27;0.20;99.90
10662;DHT22;5379;51.034;7.006;2024-01-16T22:30:54;0.20;99.90
10662;DHT22;5379;51.034;7.006;2024-01-16T22:33:22;0.10;99.90
10662;DHT22;5379;51.034;7.006;2024-01-16T22:35:49;0.30;99.90
10662;DHT22;5379;51.034;7.006;2024-01-16T22:38:16;0.20;99.90
10662;DHT22;5379;51.034;7.006;2024-01-16T22:40:43;0.10;99.90
10662;DHT22;5379;51.034;7.006;2024-01-16T22:43:10;0.10;99.90
10662;DHT22;5379;51.034;7.006;2024-01-16T22:45:37;0.10;99.90
10662;DHT22;5379;51.034;7.006;2024-01-16T22:48:05;0.10;99.90
10662;DHT22;5379;51.034;7.006;2024-01-16T22:50:38;0.10;99.90
10662;DHT22;5379;51.034;7.006;2024-01-16T22:53:05;0.10;99.90
10662;DHT22;5379;51.034;7.006;2024-01-16T22:55:33;0.00;99.90
10662;DHT22;5379;51.034;7.006;2024-01-16T22:58:00;0.10;99.90
10662;DHT22;5379;51.034;7.006;2024-01-16T23:00:28;0.00;99.90
10662;DHT22;5379;51.034;7.006;2024-01-16T23:02:55;-0.20;99.90
10662;DHT22;5379;51.034;7.006;2024-01-16T23:07:51;0.10;99.90
10662;DHT22;5379;51.034;7.006;2024-01-16T23:15:12;-0.20;99.90
10662;DHT22;5379;51.034;7.006;2024-01-16T23:17:40;-0.30;99.90
10662;DHT22;5379;51.034;7.006;2024-01-16T23:20:08;-0.30;99.90
10662;DHT22;5379;51.034;7.006;2024-01-16T23:22:39;-0.30;99.90
10662;DHT22;5379;51.034;7.006;2024-01-16T23:25:07;-0.20;99.90
10662;DHT22;5379;51.034;7.006;2024-01-16T23:30:03;-0.30;99.90
10662;DHT22;5379;51.034;7.006;2024-01-16T23:32:30;-0.20;99.90
10662;DHT22;5379;51.034;7.006;2024-01-16T23:34:57;-0.10;99.90
10662;DHT22;5379;51.034;7.006;2024-01-16T23:37:24;-0.10;99.90
10662;DHT22;5379;51.034;7.006;2024-01-16T23:39:52;-0.10;99.90
10662;DHT22;5379;51.034;7.006;2024-01-16T23:42:21;-0.20;99.90
10662;DHT22;5379;51.034;7.006;2024-01-16T23:44:48;-0.20;99.90
10662;DHT22;5379;51.034;7.006;2024-01-16T23:47:15;-0.40;99.90
10662;DHT22;5379;51.034;7.006;2024-01-16T23:49:42;-0.40;99.90
10662;DHT22;5379;51.034;7.006;2024-01-16T23:52:10;-0.30;99.90
10662;DHT22;5379;51.034;7.006;2024-01-16T23:54:38;-0.30;99.90
10662;DHT22;5379;51.034;7.006;2024-01-16T23:57:05;-0.20;99.90
10662;DHT22;5379;51.034;7.006;2024-01-16T23:59:33;0.00;99.90
